sensor_id;sensor_type;location;lat;lon;timestamp;temperature;humidity
18189;DHT22;9219;50.396;8.546;2022-07-06T00:01:52;15.70;99.90
18189;DHT22;9219;50.396;8.546;2022-07-06T00:04:20;15.80;99.90
18189;DHT22;9219;50.396;8.546;2022-07-06T00:06:48;16.00;99.90
18189;DHT22;9219;50.396;8.546;2022-07-06T00:09:15;16.00;99.90
18189;DHT22;9219;50.396;8.546;2022-07-06T00:16:43;15.80;99.90
18189;DHT22;9219;50.396;8.546;2022-07-06T00:19:11;15.80;99.90
18189;DHT22;9219;50.396;8.546;2022-07-06T00:21:38;15.90;99.90
18189;DHT22;9219;50.396;8.546;2022-07-06T00:24:07;15.90;99.90
18189;DHT22;9219;50.396;8.546;2022-07-06T00:26:35;15.90;99.90
18189;DHT22;9219;50.396;8.546;2022-07-06T00:29:03;15.80;99.90
18189;DHT22;9219;50.396;8.546;2022-07-06T00:31:31;15.80;99.90
18189;DHT22;9219;50.396;8.546;2022-07-06T00:39:05;15.80;99.90
18189;DHT22;9219;50.396;8.546;2022-07-06T00:41:33;15.70;99.90
18189;DHT22;9219;50.396;8.546;2022-07-06T00:44:00;15.80;99.90
18189;DHT22;9219;50.396;8.546;2022-07-06T00:46:30;15.80;99.90
18189;DHT22;9219;50.396;8.546;2022-07-06T00:48:59;15.80;99.90
18189;DHT22;9219;50.396;8.546;2022-07-06T00:51:29;15.90;99.90
18189;DHT22;9219;50.396;8.546;2022-07-06T00:53:58;15.90;99.90
18189;DHT22;9219;50.396;8.546;2022-07-06T01:01:32;15.90;99.90
18189;DHT22;9219;50.396;8.546;2022-07-06T01:04:00;15.60;99.90
18189;DHT22;9219;50.396;8.546;2022-07-06T01:06:27;15.70;99.90
18189;DHT22;9219;50.396;8.546;2022-07-06T01:08:55;15.70;99.90
18189;DHT22;9219;50.396;8.546;2022-07-06T01:11:23;15.80;99.90
18189;DHT22;9219;50.396;8.546;2022-07-06T01:13:50;15.80;99.90
18189;DHT22;9219;50.396;8.546;2022-07-06T01:16:18;15.80;99.90
18189;DHT22;9219;50.396;8.546;2022-07-06T01:23:46;15.70;99.90
18189;DHT22;9219;50.396;8.546;2022-07-06T01:26:15;15.60;99.90
18189;DHT22;9219;50.396;8.546;2022-07-06T01:28:44;15.70;99.90
18189;DHT22;9219;50.396;8.546;2022-07-06T01:31:15;15.70;99.90
18189;DHT22;9219;50.396;8.546;2022-07-06T01:33:43;15.50;99.90
18189;DHT22;9219;50.396;8.546;2022-07-06T01:36:10;15.40;99.90
18189;DHT22;9219;50.396;8.546;2022-07-06T01:38:47;15.40;99.90
18189;DHT22;9219;50.396;8.546;2022-07-06T01:44:09;15.00;99.90
18189;DHT22;9219;50.396;8.546;2022-07-06T01:46:37;14.80;99.90
18189;DHT22;9219;50.396;8.546;2022-07-06T01:49:05;14.80;99.90
18189;DHT22;9219;50.396;8.546;2022-07-06T01:51:32;14.80;99.90
18189;DHT22;9219;50.396;8.546;2022-07-06T01:54:00;14.80;99.90
18189;DHT22;9219;50.396;8.546;2022-07-06T01:56:27;14.80;99.90
18189;DHT22;9219;50.396;8.546;2022-07-06T01:58:54;14.70;99.90
18189;DHT22;9219;50.396;8.546;2022-07-06T02:06:22;14.70;99.90
18189;DHT22;9219;50.396;8.546;2022-07-06T02:08:49;14.70;99.90
18189;DHT22;9219;50.396;8.546;2022-07-06T02:11:18;14.70;99.90
18189;DHT22;9219;50.396;8.546;2022-07-06T02:13:46;14.50;99.90
18189;DHT22;9219;50.396;8.546;2022-07-06T02:16:13;14.50;99.90
18189;DHT22;9219;50.396;8.546;2022-07-06T02:18:41;14.20;99.90
18189;DHT22;9219;50.396;8.546;2022-07-06T02:21:08;14.10;99.90
18189;DHT22;9219;50.396;8.546;2022-07-06T02:28:35;14.00;99.90
18189;DHT22;9219;50.396;8.546;2022-07-06T02:31:02;13.70;99.90
18189;DHT22;9219;50.396;8.546;2022-07-06T02:33:30;13.70;99.90
18189;DHT22;9219;50.396;8.546;2022-07-06T02:35:57;13.60;99.90
18189;DHT22;9219;50.396;8.546;2022-07-06T02:38:24;13.70;99.90
18189;DHT22;9219;50.396;8.546;2022-07-06T02:40:55;13.70;99.90
18189;DHT22;9219;50.396;8.546;2022-07-06T02:43:23;13.60;99.90
18189;DHT22;9219;50.396;8.546;2022-07-06T02:50:48;13.50;99.90
18189;DHT22;9219;50.396;8.546;2022-07-06T02:53:17;13.40;99.90
18189;DHT22;9219;50.396;8.546;2022-07-06T02:55:45;13.30;99.90
18189;DHT22;9219;50.396;8.546;2022-07-06T02:58:12;13.10;99.90
18189;DHT22;9219;50.396;8.546;2022-07-06T03:00:40;13.00;99.90
18189;DHT22;9219;50.396;8.546;2022-07-06T03:03:07;13.00;99.90
18189;DHT22;9219;50.396;8.546;2022-07-06T03:05:35;12.90;99.90
18189;DHT22;9219;50.396;8.546;2022-07-06T03:12:29;12.90;99.90
18189;DHT22;9219;50.396;8.546;2022-07-06T03:14:57;12.80;99.90
18189;DHT22;9219;50.396;8.546;2022-07-06T03:17:25;13.00;99.90
18189;DHT22;9219;50.396;8.546;2022-07-06T03:19:52;13.00;99.90
18189;DHT22;9219;50.396;8.546;2022-07-06T03:22:20;13.10;99.90
18189;DHT22;9219;50.396;8.546;2022-07-06T03:24:47;13.00;99.90
18189;DHT22;9219;50.396;8.546;2022-07-06T03:27:16;13.00;99.90
18189;DHT22;9219;50.396;8.546;2022-07-06T03:34:44;13.10;99.90
18189;DHT22;9219;50.396;8.546;2022-07-06T03:37:11;13.10;99.90
18189;DHT22;9219;50.396;8.546;2022-07-06T03:39:39;13.10;99.90
18189;DHT22;9219;50.396;8.546;2022-07-06T03:42:06;13.10;99.90
18189;DHT22;9219;50.396;8.546;2022-07-06T03:44:37;13.00;99.90
18189;DHT22;9219;50.396;8.546;2022-07-06T03:47:04;13.10;99.90
18189;DHT22;9219;50.396;8.546;2022-07-06T03:49:32;13.00;99.90
18189;DHT22;9219;50.396;8.546;2022-07-06T03:57:00;13.00;99.90
18189;DHT22;9219;50.396;8.546;2022-07-06T03:59:28;13.00;99.90
18189;DHT22;9219;50.396;8.546;2022-07-06T04:01:55;12.90;99.90
18189;DHT22;9219;50.396;8.546;2022-07-06T04:04:23;13.00;99.90
18189;DHT22;9219;50.396;8.546;2022-07-06T04:06:50;13.00;99.90
18189;DHT22;9219;50.396;8.546;2022-07-06T04:09:18;13.00;99.90
18189;DHT22;9219;50.396;8.546;2022-07-06T04:11:45;13.10;99.90
18189;DHT22;9219;50.396;8.546;2022-07-06T04:18:17;13.10;99.90
18189;DHT22;9219;50.396;8.546;2022-07-06T04:20:44;13.00;99.90
18189;DHT22;9219;50.396;8.546;2022-07-06T04:23:12;13.20;99.90
18189;DHT22;9219;50.396;8.546;2022-07-06T04:25:39;13.40;99.90
18189;DHT22;9219;50.396;8.546;2022-07-06T04:28:07;13.60;99.90
18189;DHT22;9219;50.396;8.546;2022-07-06T04:30:34;13.70;99.90
18189;DHT22;9219;50.396;8.546;2022-07-06T04:33:02;13.60;99.90
18189;DHT22;9219;50.396;8.546;2022-07-06T04:38:11;13.70;99.90
18189;DHT22;9219;50.396;8.546;2022-07-06T04:40:39;13.70;99.90
18189;DHT22;9219;50.396;8.546;2022-07-06T04:43:06;13.70;99.90
18189;DHT22;9219;50.396;8.546;2022-07-06T04:45:33;13.60;99.90
18189;DHT22;9219;50.396;8.546;2022-07-06T04:48:01;13.60;99.90
18189;DHT22;9219;50.396;8.546;2022-07-06T04:50:28;13.50;99.90
18189;DHT22;9219;50.396;8.546;2022-07-06T04:53:03;13.50;99.90
18189;DHT22;9219;50.396;8.546;2022-07-06T05:00:32;13.40;99.90
18189;DHT22;9219;50.396;8.546;2022-07-06T05:03:01;13.10;99.90
18189;DHT22;9219;50.396;8.546;2022-07-06T05:05:29;13.00;99.90
18189;DHT22;9219;50.396;8.546;2022-07-06T05:07:56;12.90;99.90
18189;DHT22;9219;50.396;8.546;2022-07-06T05:10:23;12.90;99.90
18189;DHT22;9219;50.396;8.546;2022-07-06T05:12:50;12.90;99.90
18189;DHT22;9219;50.396;8.546;2022-07-06T05:15:18;12.80;99.90
18189;DHT22;9219;50.396;8.546;2022-07-06T05:22:51;12.80;99.90
18189;DHT22;9219;50.396;8.546;2022-07-06T05:25:19;13.00;99.90
18189;DHT22;9219;50.396;8.546;2022-07-06T05:27:47;12.90;99.90
18189;DHT22;9219;50.396;8.546;2022-07-06T05:30:15;13.00;99.90
18189;DHT22;9219;50.396;8.546;2022-07-06T05:32:42;13.00;99.90
18189;DHT22;9219;50.396;8.546;2022-07-06T05:35:10;12.90;99.90
18189;DHT22;9219;50.396;8.546;2022-07-06T05:37:58;12.90;99.90
18189;DHT22;9219;50.396;8.546;2022-07-06T05:43:07;13.00;99.90
18189;DHT22;9219;50.396;8.546;2022-07-06T05:45:36;13.10;99.90
18189;DHT22;9219;50.396;8.546;2022-07-06T05:48:04;13.10;99.90
18189;DHT22;9219;50.396;8.546;2022-07-06T05:50:50;13.10;99.90
18189;DHT22;9219;50.396;8.546;2022-07-06T05:53:18;13.00;99.90
18189;DHT22;9219;50.396;8.546;2022-07-06T05:55:47;13.00;99.90
18189;DHT22;9219;50.396;8.546;2022-07-06T05:58:17;13.00;99.90
18189;DHT22;9219;50.396;8.546;2022-07-06T06:00:44;13.00;99.90
18189;DHT22;9219;50.396;8.546;2022-07-06T06:08:21;13.30;99.90
18189;DHT22;9219;50.396;8.546;2022-07-06T06:10:53;13.60;99.90
18189;DHT22;9219;50.396;8.546;2022-07-06T06:13:21;13.50;99.90
18189;DHT22;9219;50.396;8.546;2022-07-06T06:15:49;13.50;99.90
18189;DHT22;9219;50.396;8.546;2022-07-06T06:18:18;13.60;99.90
18189;DHT22;9219;50.396;8.546;2022-07-06T06:20:46;13.50;99.90
18189;DHT22;9219;50.396;8.546;2022-07-06T06:23:13;13.50;99.90
18189;DHT22;9219;50.396;8.546;2022-07-06T06:30:48;13.50;99.90
18189;DHT22;9219;50.396;8.546;2022-07-06T06:33:17;13.80;99.90
18189;DHT22;9219;50.396;8.546;2022-07-06T06:35:47;13.70;99.90
18189;DHT22;9219;50.396;8.546;2022-07-06T06:38:16;13.80;99.90
18189;DHT22;9219;50.396;8.546;2022-07-06T06:40:43;13.90;99.90
18189;DHT22;9219;50.396;8.546;2022-07-06T06:43:11;13.70;99.90
18189;DHT22;9219;50.396;8.546;2022-07-06T06:45:39;13.60;99.90
18189;DHT22;9219;50.396;8.546;2022-07-06T06:53:12;13.90;99.90
18189;DHT22;9219;50.396;8.546;2022-07-06T06:55:40;13.60;99.90
18189;DHT22;9219;50.396;8.546;2022-07-06T06:58:08;13.60;99.90
18189;DHT22;9219;50.396;8.546;2022-07-06T07:00:36;13.60;99.90
18189;DHT22;9219;50.396;8.546;2022-07-06T07:03:03;13.50;99.90
18189;DHT22;9219;50.396;8.546;2022-07-06T07:05:31;13.50;99.90
18189;DHT22;9219;50.396;8.546;2022-07-06T07:07:58;13.60;99.90
18189;DHT22;9219;50.396;8.546;2022-07-06T07:13:15;13.80;99.90
18189;DHT22;9219;50.396;8.546;2022-07-06T07:15:46;14.00;99.90
18189;DHT22;9219;50.396;8.546;2022-07-06T07:18:14;14.20;99.90
18189;DHT22;9219;50.396;8.546;2022-07-06T07:20:42;14.40;99.90
18189;DHT22;9219;50.396;8.546;2022-07-06T07:23:09;14.40;99.90
18189;DHT22;9219;50.396;8.546;2022-07-06T07:25:38;14.50;99.90
18189;DHT22;9219;50.396;8.546;2022-07-06T07:28:06;14.50;99.90
18189;DHT22;9219;50.396;8.546;2022-07-06T07:30:44;14.30;99.90
18189;DHT22;9219;50.396;8.546;2022-07-06T07:36:01;14.00;99.90
18189;DHT22;9219;50.396;8.546;2022-07-06T07:38:29;14.10;99.90
18189;DHT22;9219;50.396;8.546;2022-07-06T07:40:56;14.10;99.90
18189;DHT22;9219;50.396;8.546;2022-07-06T07:43:25;14.30;99.90
18189;DHT22;9219;50.396;8.546;2022-07-06T07:45:53;14.40;99.90
18189;DHT22;9219;50.396;8.546;2022-07-06T07:48:21;14.80;99.90
18189;DHT22;9219;50.396;8.546;2022-07-06T07:50:50;14.90;99.90
18189;DHT22;9219;50.396;8.546;2022-07-06T07:56:00;14.70;99.90
18189;DHT22;9219;50.396;8.546;2022-07-06T07:58:29;15.10;99.90
18189;DHT22;9219;50.396;8.546;2022-07-06T08:00:58;15.40;99.90
18189;DHT22;9219;50.396;8.546;2022-07-06T08:03:26;15.40;99.90
18189;DHT22;9219;50.396;8.546;2022-07-06T08:05:54;15.40;99.90
18189;DHT22;9219;50.396;8.546;2022-07-06T08:08:21;15.50;99.90
18189;DHT22;9219;50.396;8.546;2022-07-06T08:10:50;15.90;99.90
18189;DHT22;9219;50.396;8.546;2022-07-06T08:18:44;16.00;99.90
18189;DHT22;9219;50.396;8.546;2022-07-06T08:21:15;15.80;99.90
18189;DHT22;9219;50.396;8.546;2022-07-06T08:23:57;15.80;99.90
18189;DHT22;9219;50.396;8.546;2022-07-06T08:26:27;16.00;99.90
18189;DHT22;9219;50.396;8.546;2022-07-06T08:28:55;16.30;99.90
18189;DHT22;9219;50.396;8.546;2022-07-06T08:31:23;16.40;99.90
18189;DHT22;9219;50.396;8.546;2022-07-06T08:34:13;16.60;99.90
18189;DHT22;9219;50.396;8.546;2022-07-06T08:41:51;17.30;99.90
18189;DHT22;9219;50.396;8.546;2022-07-06T08:44:23;17.30;99.90
18189;DHT22;9219;50.396;8.546;2022-07-06T08:46:54;17.00;99.90
18189;DHT22;9219;50.396;8.546;2022-07-06T08:49:25;16.80;99.90
18189;DHT22;9219;50.396;8.546;2022-07-06T08:51:54;16.60;99.90
18189;DHT22;9219;50.396;8.546;2022-07-06T08:54:22;16.50;99.90
18189;DHT22;9219;50.396;8.546;2022-07-06T08:56:51;16.50;99.90
18189;DHT22;9219;50.396;8.546;2022-07-06T09:04:26;16.90;99.90
18189;DHT22;9219;50.396;8.546;2022-07-06T09:06:55;17.10;99.90
18189;DHT22;9219;50.396;8.546;2022-07-06T09:09:24;17.30;99.90
18189;DHT22;9219;50.396;8.546;2022-07-06T09:11:53;17.70;99.90
18189;DHT22;9219;50.396;8.546;2022-07-06T09:14:29;17.80;99.90
18189;DHT22;9219;50.396;8.546;2022-07-06T09:17:03;17.90;99.90
18189;DHT22;9219;50.396;8.546;2022-07-06T09:19:34;18.30;99.90
18189;DHT22;9219;50.396;8.546;2022-07-06T09:22:07;18.10;99.90
18189;DHT22;9219;50.396;8.546;2022-07-06T09:29:37;17.20;99.90
18189;DHT22;9219;50.396;8.546;2022-07-06T09:32:05;17.00;99.90
18189;DHT22;9219;50.396;8.546;2022-07-06T09:34:42;17.20;99.90
18189;DHT22;9219;50.396;8.546;2022-07-06T09:37:12;17.50;99.90
18189;DHT22;9219;50.396;8.546;2022-07-06T09:39:40;18.00;99.90
18189;DHT22;9219;50.396;8.546;2022-07-06T09:42:09;18.30;99.90
18189;DHT22;9219;50.396;8.546;2022-07-06T09:44:39;18.40;99.90
18189;DHT22;9219;50.396;8.546;2022-07-06T09:49:55;18.60;99.90
18189;DHT22;9219;50.396;8.546;2022-07-06T09:52:23;18.40;99.90
18189;DHT22;9219;50.396;8.546;2022-07-06T09:54:51;18.10;99.90
18189;DHT22;9219;50.396;8.546;2022-07-06T09:57:21;18.00;99.90
18189;DHT22;9219;50.396;8.546;2022-07-06T09:59:51;18.20;99.90
18189;DHT22;9219;50.396;8.546;2022-07-06T10:02:20;18.30;99.90
18189;DHT22;9219;50.396;8.546;2022-07-06T10:04:48;18.50;99.90
18189;DHT22;9219;50.396;8.546;2022-07-06T10:10:13;18.80;99.90
18189;DHT22;9219;50.396;8.546;2022-07-06T10:12:42;19.50;99.90
18189;DHT22;9219;50.396;8.546;2022-07-06T10:15:12;19.70;99.90
18189;DHT22;9219;50.396;8.546;2022-07-06T10:17:42;19.90;99.90
18189;DHT22;9219;50.396;8.546;2022-07-06T10:20:11;19.50;99.90
18189;DHT22;9219;50.396;8.546;2022-07-06T10:22:40;19.10;99.90
18189;DHT22;9219;50.396;8.546;2022-07-06T10:25:08;18.90;99.90
18189;DHT22;9219;50.396;8.546;2022-07-06T10:30:22;18.90;99.90
18189;DHT22;9219;50.396;8.546;2022-07-06T10:32:52;19.80;99.90
18189;DHT22;9219;50.396;8.546;2022-07-06T10:35:22;20.20;99.90
18189;DHT22;9219;50.396;8.546;2022-07-06T10:38:04;20.20;99.90
18189;DHT22;9219;50.396;8.546;2022-07-06T10:40:37;19.90;99.90
18189;DHT22;9219;50.396;8.546;2022-07-06T10:43:23;19.80;99.90
18189;DHT22;9219;50.396;8.546;2022-07-06T10:46:05;19.60;99.90
18189;DHT22;9219;50.396;8.546;2022-07-06T10:51:28;19.80;99.90
18189;DHT22;9219;50.396;8.546;2022-07-06T10:54:00;20.10;99.90
18189;DHT22;9219;50.396;8.546;2022-07-06T10:56:32;20.00;99.90
18189;DHT22;9219;50.396;8.546;2022-07-06T10:59:09;19.70;99.90
18189;DHT22;9219;50.396;8.546;2022-07-06T11:01:38;20.10;99.90
18189;DHT22;9219;50.396;8.546;2022-07-06T11:04:15;20.80;99.90
18189;DHT22;9219;50.396;8.546;2022-07-06T11:06:48;21.10;99.90
18189;DHT22;9219;50.396;8.546;2022-07-06T11:14:26;21.20;99.90
18189;DHT22;9219;50.396;8.546;2022-07-06T11:17:10;21.00;99.90
18189;DHT22;9219;50.396;8.546;2022-07-06T11:19:48;20.60;99.90
18189;DHT22;9219;50.396;8.546;2022-07-06T11:22:17;20.20;99.90
18189;DHT22;9219;50.396;8.546;2022-07-06T11:24:47;20.20;99.90
18189;DHT22;9219;50.396;8.546;2022-07-06T11:27:18;20.40;99.90
18189;DHT22;9219;50.396;8.546;2022-07-06T11:29:49;20.20;99.90
18189;DHT22;9219;50.396;8.546;2022-07-06T11:37:25;21.00;99.90
18189;DHT22;9219;50.396;8.546;2022-07-06T11:39:52;21.00;99.90
18189;DHT22;9219;50.396;8.546;2022-07-06T11:42:20;20.60;99.90
18189;DHT22;9219;50.396;8.546;2022-07-06T11:44:48;19.90;99.90
18189;DHT22;9219;50.396;8.546;2022-07-06T11:47:18;19.90;99.90
18189;DHT22;9219;50.396;8.546;2022-07-06T11:49:51;19.90;99.90
18189;DHT22;9219;50.396;8.546;2022-07-06T11:52:19;19.60;99.90
18189;DHT22;9219;50.396;8.546;2022-07-06T11:59:54;19.40;99.90
18189;DHT22;9219;50.396;8.546;2022-07-06T12:02:23;20.40;99.90
18189;DHT22;9219;50.396;8.546;2022-07-06T12:04:51;20.40;99.90
18189;DHT22;9219;50.396;8.546;2022-07-06T12:07:18;20.20;99.90
18189;DHT22;9219;50.396;8.546;2022-07-06T12:09:47;20.00;99.90
18189;DHT22;9219;50.396;8.546;2022-07-06T12:12:17;19.90;99.90
18189;DHT22;9219;50.396;8.546;2022-07-06T12:14:46;20.10;99.90
18189;DHT22;9219;50.396;8.546;2022-07-06T12:20:11;20.30;99.90
18189;DHT22;9219;50.396;8.546;2022-07-06T12:44:32;19.80;99.90
18189;DHT22;9219;50.396;8.546;2022-07-06T12:47:04;19.90;99.90
18189;DHT22;9219;50.396;8.546;2022-07-06T12:49:34;19.80;99.90
18189;DHT22;9219;50.396;8.546;2022-07-06T12:52:09;19.70;99.90
18189;DHT22;9219;50.396;8.546;2022-07-06T12:54:42;19.40;99.90
18189;DHT22;9219;50.396;8.546;2022-07-06T12:57:12;19.20;99.90
18189;DHT22;9219;50.396;8.546;2022-07-06T12:59:44;19.20;99.90
18189;DHT22;9219;50.396;8.546;2022-07-06T13:02:21;19.30;99.90
18189;DHT22;9219;50.396;8.546;2022-07-06T13:21:14;20.60;99.90
18189;DHT22;9219;50.396;8.546;2022-07-06T13:23:47;20.50;99.90
18189;DHT22;9219;50.396;8.546;2022-07-06T13:26:19;20.30;99.90
18189;DHT22;9219;50.396;8.546;2022-07-06T13:28:48;20.20;99.90
18189;DHT22;9219;50.396;8.546;2022-07-06T13:31:19;20.10;99.90
18189;DHT22;9219;50.396;8.546;2022-07-06T13:33:49;20.20;99.90
18189;DHT22;9219;50.396;8.546;2022-07-06T13:36:22;20.60;99.90
18189;DHT22;9219;50.396;8.546;2022-07-06T13:39:10;21.00;99.90
18189;DHT22;9219;50.396;8.546;2022-07-06T13:42:05;20.60;99.90
18189;DHT22;9219;50.396;8.546;2022-07-06T13:47:23;20.50;99.90
18189;DHT22;9219;50.396;8.546;2022-07-06T13:49:50;20.40;99.90
18189;DHT22;9219;50.396;8.546;2022-07-06T13:52:18;20.20;99.90
18189;DHT22;9219;50.396;8.546;2022-07-06T13:54:47;19.90;99.90
18189;DHT22;9219;50.396;8.546;2022-07-06T13:57:15;19.60;99.90
18189;DHT22;9219;50.396;8.546;2022-07-06T13:59:42;19.60;99.90
18189;DHT22;9219;50.396;8.546;2022-07-06T14:02:10;19.90;99.90
18189;DHT22;9219;50.396;8.546;2022-07-06T14:07:26;19.80;99.90
18189;DHT22;9219;50.396;8.546;2022-07-06T14:09:57;19.60;99.90
18189;DHT22;9219;50.396;8.546;2022-07-06T14:12:25;19.70;99.90
18189;DHT22;9219;50.396;8.546;2022-07-06T14:14:54;19.60;99.90
18189;DHT22;9219;50.396;8.546;2022-07-06T14:17:22;19.50;99.90
18189;DHT22;9219;50.396;8.546;2022-07-06T14:19:53;19.40;99.90
18189;DHT22;9219;50.396;8.546;2022-07-06T14:22:21;19.30;99.90
18189;DHT22;9219;50.396;8.546;2022-07-06T14:29:53;19.20;99.90
18189;DHT22;9219;50.396;8.546;2022-07-06T14:32:21;19.20;99.90
18189;DHT22;9219;50.396;8.546;2022-07-06T14:34:50;19.10;99.90
18189;DHT22;9219;50.396;8.546;2022-07-06T14:37:19;19.00;99.90
18189;DHT22;9219;50.396;8.546;2022-07-06T14:39:51;19.10;99.90
18189;DHT22;9219;50.396;8.546;2022-07-06T14:42:19;18.80;99.90
18189;DHT22;9219;50.396;8.546;2022-07-06T14:44:48;18.90;99.90
18189;DHT22;9219;50.396;8.546;2022-07-06T14:52:22;19.10;99.90
18189;DHT22;9219;50.396;8.546;2022-07-06T14:54:50;18.40;99.90
18189;DHT22;9219;50.396;8.546;2022-07-06T14:57:18;18.30;99.90
18189;DHT22;9219;50.396;8.546;2022-07-06T14:59:46;18.30;99.90
18189;DHT22;9219;50.396;8.546;2022-07-06T15:02:14;18.60;99.90
18189;DHT22;9219;50.396;8.546;2022-07-06T15:04:42;18.50;99.90
18189;DHT22;9219;50.396;8.546;2022-07-06T15:07:21;18.40;99.90
18189;DHT22;9219;50.396;8.546;2022-07-06T15:09:49;18.50;99.90
18189;DHT22;9219;50.396;8.546;2022-07-06T15:12:40;18.60;99.90
18189;DHT22;9219;50.396;8.546;2022-07-06T15:15:08;18.70;99.90
18189;DHT22;9219;50.396;8.546;2022-07-06T15:17:56;18.80;99.90
18189;DHT22;9219;50.396;8.546;2022-07-06T15:20:24;18.80;99.90
18189;DHT22;9219;50.396;8.546;2022-07-06T15:22:52;18.80;99.90
18189;DHT22;9219;50.396;8.546;2022-07-06T15:25:20;18.90;99.90
18189;DHT22;9219;50.396;8.546;2022-07-06T15:27:50;18.90;99.90
18189;DHT22;9219;50.396;8.546;2022-07-06T15:35:26;18.80;99.90
18189;DHT22;9219;50.396;8.546;2022-07-06T15:37:54;18.40;99.90
18189;DHT22;9219;50.396;8.546;2022-07-06T15:40:22;18.40;99.90
18189;DHT22;9219;50.396;8.546;2022-07-06T15:42:52;18.40;99.90
18189;DHT22;9219;50.396;8.546;2022-07-06T15:45:22;18.50;99.90
18189;DHT22;9219;50.396;8.546;2022-07-06T15:47:51;18.60;99.90
18189;DHT22;9219;50.396;8.546;2022-07-06T15:50:19;18.70;99.90
18189;DHT22;9219;50.396;8.546;2022-07-06T15:52:48;18.70;99.90
18189;DHT22;9219;50.396;8.546;2022-07-06T15:58:02;18.90;99.90
18189;DHT22;9219;50.396;8.546;2022-07-06T16:00:30;18.50;99.90
18189;DHT22;9219;50.396;8.546;2022-07-06T16:02:58;18.50;99.90
18189;DHT22;9219;50.396;8.546;2022-07-06T16:05:26;18.60;99.90
18189;DHT22;9219;50.396;8.546;2022-07-06T16:08:17;18.60;99.90
18189;DHT22;9219;50.396;8.546;2022-07-06T16:10:52;18.70;99.90
18189;DHT22;9219;50.396;8.546;2022-07-06T16:13:21;18.80;99.90
18189;DHT22;9219;50.396;8.546;2022-07-06T16:19:11;18.70;99.90
18189;DHT22;9219;50.396;8.546;2022-07-06T16:21:40;18.50;99.90
18189;DHT22;9219;50.396;8.546;2022-07-06T16:24:12;18.60;99.90
18189;DHT22;9219;50.396;8.546;2022-07-06T16:26:43;18.60;99.90
18189;DHT22;9219;50.396;8.546;2022-07-06T16:29:12;18.70;99.90
18189;DHT22;9219;50.396;8.546;2022-07-06T16:31:39;18.80;99.90
18189;DHT22;9219;50.396;8.546;2022-07-06T16:34:08;18.90;99.90
18189;DHT22;9219;50.396;8.546;2022-07-06T16:36:37;18.80;99.90
18189;DHT22;9219;50.396;8.546;2022-07-06T16:54:29;18.50;99.90
18189;DHT22;9219;50.396;8.546;2022-07-06T16:56:57;18.20;99.90
18189;DHT22;9219;50.396;8.546;2022-07-06T16:59:25;18.20;99.90
18189;DHT22;9219;50.396;8.546;2022-07-06T17:01:55;18.30;99.90
18189;DHT22;9219;50.396;8.546;2022-07-06T17:04:23;18.40;99.90
18189;DHT22;9219;50.396;8.546;2022-07-06T17:06:51;18.50;99.90
18189;DHT22;9219;50.396;8.546;2022-07-06T17:09:18;18.40;99.90
18189;DHT22;9219;50.396;8.546;2022-07-06T17:14:28;18.30;99.90
18189;DHT22;9219;50.396;8.546;2022-07-06T17:16:56;18.40;99.90
18189;DHT22;9219;50.396;8.546;2022-07-06T17:19:24;18.50;99.90
18189;DHT22;9219;50.396;8.546;2022-07-06T17:21:52;18.60;99.90
18189;DHT22;9219;50.396;8.546;2022-07-06T17:24:27;18.40;99.90
18189;DHT22;9219;50.396;8.546;2022-07-06T17:26:56;18.20;99.90
18189;DHT22;9219;50.396;8.546;2022-07-06T17:29:26;18.30;99.90
18189;DHT22;9219;50.396;8.546;2022-07-06T17:31:58;18.20;99.90
18189;DHT22;9219;50.396;8.546;2022-07-06T17:39:44;18.30;99.90
18189;DHT22;9219;50.396;8.546;2022-07-06T17:42:15;18.40;99.90
18189;DHT22;9219;50.396;8.546;2022-07-06T17:44:48;18.40;99.90
18189;DHT22;9219;50.396;8.546;2022-07-06T17:47:18;18.40;99.90
18189;DHT22;9219;50.396;8.546;2022-07-06T17:49:45;18.40;99.90
18189;DHT22;9219;50.396;8.546;2022-07-06T17:52:26;18.10;99.90
18189;DHT22;9219;50.396;8.546;2022-07-06T17:54:57;18.00;99.90
18189;DHT22;9219;50.396;8.546;2022-07-06T18:02:12;17.80;99.90
18189;DHT22;9219;50.396;8.546;2022-07-06T18:04:41;17.80;99.90
18189;DHT22;9219;50.396;8.546;2022-07-06T18:07:09;17.90;99.90
18189;DHT22;9219;50.396;8.546;2022-07-06T18:09:37;17.90;99.90
18189;DHT22;9219;50.396;8.546;2022-07-06T18:12:10;18.00;99.90
18189;DHT22;9219;50.396;8.546;2022-07-06T18:14:38;18.00;99.90
18189;DHT22;9219;50.396;8.546;2022-07-06T18:17:06;18.00;99.90
18189;DHT22;9219;50.396;8.546;2022-07-06T18:32:46;17.90;99.90
18189;DHT22;9219;50.396;8.546;2022-07-06T18:35:17;18.20;99.90
18189;DHT22;9219;50.396;8.546;2022-07-06T18:37:45;18.00;99.90
18189;DHT22;9219;50.396;8.546;2022-07-06T18:40:13;18.10;99.90
18189;DHT22;9219;50.396;8.546;2022-07-06T18:42:43;18.20;99.90
18189;DHT22;9219;50.396;8.546;2022-07-06T18:45:12;18.10;99.90
18189;DHT22;9219;50.396;8.546;2022-07-06T18:47:40;18.00;99.90
18189;DHT22;9219;50.396;8.546;2022-07-06T18:50:17;18.00;99.90
18189;DHT22;9219;50.396;8.546;2022-07-06T18:53:13;17.80;99.90
18189;DHT22;9219;50.396;8.546;2022-07-06T18:55:45;17.70;99.90
18189;DHT22;9219;50.396;8.546;2022-07-06T18:58:14;17.50;99.90
18189;DHT22;9219;50.396;8.546;2022-07-06T19:00:43;17.60;99.90
18189;DHT22;9219;50.396;8.546;2022-07-06T19:03:10;17.60;99.90
18189;DHT22;9219;50.396;8.546;2022-07-06T19:05:39;17.60;99.90
18189;DHT22;9219;50.396;8.546;2022-07-06T19:08:09;17.50;99.90
18189;DHT22;9219;50.396;8.546;2022-07-06T19:50:57;17.20;99.90
18189;DHT22;9219;50.396;8.546;2022-07-06T19:53:49;17.00;99.90
18189;DHT22;9219;50.396;8.546;2022-07-06T19:56:50;16.80;99.90
18189;DHT22;9219;50.396;8.546;2022-07-06T20:00:43;16.60;99.90
18189;DHT22;9219;50.396;8.546;2022-07-06T20:03:41;16.50;99.90
18189;DHT22;9219;50.396;8.546;2022-07-06T20:11:07;16.50;99.90
18189;DHT22;9219;50.396;8.546;2022-07-06T21:25:10;16.80;99.90
18189;DHT22;9219;50.396;8.546;2022-07-06T21:27:37;16.80;99.90
18189;DHT22;9219;50.396;8.546;2022-07-06T21:30:08;17.00;99.90
18189;DHT22;9219;50.396;8.546;2022-07-06T21:32:36;16.90;99.90
18189;DHT22;9219;50.396;8.546;2022-07-06T21:35:05;17.00;99.90
18189;DHT22;9219;50.396;8.546;2022-07-06T21:37:33;17.00;99.90
18189;DHT22;9219;50.396;8.546;2022-07-06T21:40:00;17.00;99.90
18189;DHT22;9219;50.396;8.546;2022-07-06T21:46:52;17.30;99.90
18189;DHT22;9219;50.396;8.546;2022-07-06T21:49:19;17.30;99.90
18189;DHT22;9219;50.396;8.546;2022-07-06T21:51:47;17.50;99.90
18189;DHT22;9219;50.396;8.546;2022-07-06T21:54:15;17.40;99.90
18189;DHT22;9219;50.396;8.546;2022-07-06T21:56:45;17.40;99.90
18189;DHT22;9219;50.396;8.546;2022-07-06T21:59:13;17.50;99.90
18189;DHT22;9219;50.396;8.546;2022-07-06T22:01:42;17.60;99.90
18189;DHT22;9219;50.396;8.546;2022-07-06T22:06:51;17.40;99.90
18189;DHT22;9219;50.396;8.546;2022-07-06T22:09:20;17.40;99.90
18189;DHT22;9219;50.396;8.546;2022-07-06T22:11:48;17.40;99.90
18189;DHT22;9219;50.396;8.546;2022-07-06T22:14:21;17.40;99.90
18189;DHT22;9219;50.396;8.546;2022-07-06T22:17:11;17.20;99.90
18189;DHT22;9219;50.396;8.546;2022-07-06T22:19:39;17.00;99.90